Saint Augustine, FL

2:31 PM EDT on May 29, 2017 (GMT -0400)
St Augustine: Blvd Des Pins - Dondanville Rd | | Change Station

Elev 10 ft 29.82 °N, 81.27 °W | Updated 5 seconds ago

Partly Cloudy
Partly Cloudy
91.9 °F
Feels Like 117 °F
N
2.2
Wind Variable Wind from SSE
Gusts 2.5 mph

Today
High -- | Low -- °F
--% Chance of Precip.
Yesterday
High -- | Low -- °F
Precip. -- in
Pressure 30.05 in
Visibility 10.0 miles
Clouds Few 5500 ft
Scattered Clouds 6500 ft
Heat Index 117 °F
Dew Point 83 °F
Humidity 76%
Rainfall 0.00 in
Snow Depth Not available.
6:25 AM 8:19 PM
Waxing Crescent, 21% visible
METAR KSGJ 291756Z 13011KT 10SM FEW055 SCT065 31/22 A3005 RMK AO2 SLP176 T03060222 10333 20250 58001
Pressure 30.05 in
Visibility 10.0 miles
Clouds Few 5500 ft
Scattered Clouds 6500 ft
Heat Index 117 °F
Dew Point 83 °F
Humidity 76%
Rainfall 0.00 in
Snow Depth Not available.
6:25 AM 8:19 PM
Waxing Crescent, 21% visible
METAR KSGJ 291756Z 13011KT 10SM FEW055 SCT065 31/22 A3005 RMK AO2 SLP176 T03060222 10333 20250 58001

Get Severe Weather Alerts

Thanks for signing up!

Be on the lookout for a verification email in your inbox.

You'll start receiving the daily forecast at 6 AM.

×

10-Day Weather Forecast

Almanac

Astronomy

May. 29, 2017 Rise Set
Actual Time
Civil Twilight
Nautical Twilight
Astronomical Twilight
Moon
Length of Visible Light
Length of Day
Tomorrow will be .
, % of the Moon is Illuminated

Today's Extremes

State Highs State Lows

Community

WunderPhotos

Category 6

Welcome to Category 6. This is the collective home for Weather Underground's featured writeups by Dr. Jeff Masters (right), Bob Henson (left), Chris Burt, and other regular contributors.

Nearby

Air Quality

  Air Quality AQ Index Pollutant
Not available.

Snow Depth

Station Depth Elevation

Earthquake Activity

City Distance Mag. Time & Date
Minimum magnitude displayed is 2.5.

Coastal Water Temperatures

Place Temperature

Stations

Nearby Weather Stations

Station Location Temp. Windchill Dew Point Humidity Wind Precip. Elev Updated Type
                   

Watches & Warnings

There are currently no watches in effect.